createdAt,value
2022-11-28T00:18:29.619Z,19.1
2022-11-28T00:48:29.534Z,19.1
2022-11-28T01:18:29.564Z,19.0
2022-11-28T01:48:29.534Z,19.0
2022-11-28T02:18:29.549Z,18.9
2022-11-28T02:48:29.538Z,18.8
2022-11-28T03:18:29.557Z,18.8
2022-11-28T03:48:29.557Z,18.7
2022-11-28T04:18:29.560Z,18.7
2022-11-28T04:48:29.540Z,18.8
2022-11-28T05:18:29.545Z,18.9
2022-11-28T05:48:29.612Z,19.0
2022-11-28T06:18:29.684Z,19.1
2022-11-28T06:48:29.526Z,19.1
2022-11-28T07:18:29.590Z,19.2
2022-11-28T07:48:29.665Z,19.3
2022-11-28T08:18:29.684Z,19.3
2022-11-28T08:48:29.762Z,19.4
2022-11-28T09:18:29.774Z,19.4
2022-11-28T09:48:29.708Z,19.4
2022-11-28T10:18:29.648Z,19.5
2022-11-28T10:48:29.533Z,19.5
2022-11-28T11:18:29.693Z,19.5
2022-11-28T11:48:29.608Z,19.5
2022-11-28T12:18:29.551Z,19.5
2022-11-28T12:48:29.541Z,19.5
2022-11-28T13:18:29.527Z,19.5
2022-11-28T13:48:29.696Z,19.6
2022-11-28T14:18:29.443Z,19.6
2022-11-28T14:48:29.618Z,19.6
2022-11-28T15:18:29.568Z,19.6
2022-11-28T15:48:29.533Z,19.6
2022-11-28T16:18:29.561Z,19.6
2022-11-28T16:48:29.570Z,19.6
2022-11-28T17:18:29.539Z,19.6
2022-11-28T17:48:29.515Z,19.6
2022-11-28T18:18:29.547Z,19.6
2022-11-28T18:48:29.539Z,19.8
2022-11-28T19:18:29.554Z,19.8
2022-11-28T19:48:29.530Z,19.8
2022-11-28T20:18:29.518Z,19.8
2022-11-28T20:48:29.561Z,19.8
2022-11-28T21:18:29.538Z,19.8
2022-11-28T21:48:29.554Z,19.8
2022-11-28T22:18:29.512Z,19.7
2022-11-28T22:48:29.547Z,19.5
2022-11-28T23:18:29.528Z,19.5
2022-11-28T23:48:29.515Z,19.3
